Jaipur, India
Current Conditions -  °F | °C
As of 5:30 PM on Monday 22 Dec 2014 (Local Time) from VIJP Reporting Station
Haze Haze  
Wind Chill: 17°   Ceiling: Unl
Heat Index: 17°   Visibility: 1.2mi
Dew Point:   Wind: 3mph
Humidity: 52%   Direction: 130°SE
Pressure: 29.94"   Gusts: NA
Location:  26.91°N, 75.8°E
Report Text: VIJP 221230Z 13003KT 2000 HZ FEW100 17/07 Q1014 NOSIG
Loading
Personal Weather Stations






























Interactive Weather Map New forecast layout! Learn more

10-Day Weather Forecast

Advertisements
Track Severe Weather on mobile